sensor_id;sensor_type;location;lat;lon;timestamp;P1;durP1;ratioP1;P2;durP2;ratioP2
24030;SDS011;12240;51.142;22.486;2022-12-29T00:01:01;18.52;;;6.80;;
24030;SDS011;12240;51.142;22.486;2022-12-29T00:03:30;22.17;;;8.23;;
24030;SDS011;12240;51.142;22.486;2022-12-29T00:05:58;17.63;;;7.50;;
24030;SDS011;12240;51.142;22.486;2022-12-29T00:08:27;19.92;;;8.18;;
24030;SDS011;12240;51.142;22.486;2022-12-29T00:11:08;21.92;;;8.70;;
24030;SDS011;12240;51.142;22.486;2022-12-29T00:13:44;21.70;;;8.40;;
24030;SDS011;12240;51.142;22.486;2022-12-29T00:16:31;19.25;;;8.15;;
24030;SDS011;12240;51.142;22.486;2022-12-29T00:19:02;18.88;;;8.40;;
24030;SDS011;12240;51.142;22.486;2022-12-29T00:21:31;22.35;;;8.40;;
24030;SDS011;12240;51.142;22.486;2022-12-29T00:24:20;20.35;;;8.63;;
24030;SDS011;12240;51.142;22.486;2022-12-29T00:26:58;20.02;;;8.77;;
24030;SDS011;12240;51.142;22.486;2022-12-29T00:29:51;19.17;;;8.40;;
24030;SDS011;12240;51.142;22.486;2022-12-29T00:32:37;21.48;;;8.82;;
24030;SDS011;12240;51.142;22.486;2022-12-29T00:37:59;21.70;;;8.88;;
24030;SDS011;12240;51.142;22.486;2022-12-29T00:40:50;22.92;;;7.93;;
24030;SDS011;12240;51.142;22.486;2022-12-29T00:43:37;24.73;;;10.25;;
24030;SDS011;12240;51.142;22.486;2022-12-29T00:46:24;24.67;;;10.73;;
24030;SDS011;12240;51.142;22.486;2022-12-29T00:48:53;17.98;;;7.32;;
24030;SDS011;12240;51.142;22.486;2022-12-29T00:51:40;23.30;;;8.93;;
24030;SDS011;12240;51.142;22.486;2022-12-29T00:54:09;17.30;;;7.28;;
24030;SDS011;12240;51.142;22.486;2022-12-29T00:56:37;18.95;;;6.97;;
24030;SDS011;12240;51.142;22.486;2022-12-29T00:59:06;21.95;;;9.88;;
24030;SDS011;12240;51.142;22.486;2022-12-29T01:01:37;18.63;;;8.48;;
24030;SDS011;12240;51.142;22.486;2022-12-29T01:04:07;20.30;;;8.60;;
24030;SDS011;12240;51.142;22.486;2022-12-29T01:06:37;19.25;;;8.90;;
24030;SDS011;12240;51.142;22.486;2022-12-29T01:09:08;20.02;;;8.38;;
24030;SDS011;12240;51.142;22.486;2022-12-29T01:11:56;21.33;;;8.13;;
24030;SDS011;12240;51.142;22.486;2022-12-29T01:14:24;24.33;;;8.35;;
24030;SDS011;12240;51.142;22.486;2022-12-29T01:16:53;22.30;;;9.43;;
24030;SDS011;12240;51.142;22.486;2022-12-29T01:19:23;24.67;;;10.00;;
24030;SDS011;12240;51.142;22.486;2022-12-29T01:21:55;16.42;;;7.50;;
24030;SDS011;12240;51.142;22.486;2022-12-29T01:24:23;24.13;;;8.38;;
24030;SDS011;12240;51.142;22.486;2022-12-29T01:26:53;26.20;;;9.13;;
24030;SDS011;12240;51.142;22.486;2022-12-29T01:29:21;25.38;;;10.13;;
24030;SDS011;12240;51.142;22.486;2022-12-29T01:31:50;21.98;;;9.10;;
24030;SDS011;12240;51.142;22.486;2022-12-29T01:34:18;22.90;;;9.75;;
24030;SDS011;12240;51.142;22.486;2022-12-29T01:36:47;23.33;;;9.02;;
24030;SDS011;12240;51.142;22.486;2022-12-29T01:39:15;32.60;;;10.88;;
24030;SDS011;12240;51.142;22.486;2022-12-29T01:41:44;31.83;;;10.95;;
24030;SDS011;12240;51.142;22.486;2022-12-29T01:50:23;31.70;;;10.73;;
24030;SDS011;12240;51.142;22.486;2022-12-29T01:53:08;23.98;;;8.27;;
24030;SDS011;12240;51.142;22.486;2022-12-29T01:55:46;24.60;;;9.88;;
24030;SDS011;12240;51.142;22.486;2022-12-29T01:58:26;22.42;;;10.20;;
24030;SDS011;12240;51.142;22.486;2022-12-29T02:01:01;17.00;;;7.35;;
24030;SDS011;12240;51.142;22.486;2022-12-29T02:03:30;19.40;;;8.13;;
24030;SDS011;12240;51.142;22.486;2022-12-29T02:06:02;20.45;;;7.93;;
24030;SDS011;12240;51.142;22.486;2022-12-29T02:08:45;23.30;;;8.50;;
24030;SDS011;12240;51.142;22.486;2022-12-29T02:11:16;24.92;;;8.98;;
24030;SDS011;12240;51.142;22.486;2022-12-29T02:13:45;19.65;;;8.13;;
24030;SDS011;12240;51.142;22.486;2022-12-29T02:16:29;20.10;;;7.80;;
24030;SDS011;12240;51.142;22.486;2022-12-29T02:19:41;23.92;;;9.20;;
24030;SDS011;12240;51.142;22.486;2022-12-29T02:22:27;23.25;;;9.57;;
24030;SDS011;12240;51.142;22.486;2022-12-29T02:45:02;20.58;;;7.55;;
24030;SDS011;12240;51.142;22.486;2022-12-29T02:47:48;24.02;;;7.47;;
24030;SDS011;12240;51.142;22.486;2022-12-29T02:51:07;19.05;;;6.78;;
24030;SDS011;12240;51.142;22.486;2022-12-29T02:53:48;18.60;;;6.32;;
24030;SDS011;12240;51.142;22.486;2022-12-29T02:56:37;18.35;;;8.23;;
24030;SDS011;12240;51.142;22.486;2022-12-29T02:59:05;19.42;;;7.13;;
24030;SDS011;12240;51.142;22.486;2022-12-29T03:11:14;24.40;;;8.32;;
24030;SDS011;12240;51.142;22.486;2022-12-29T03:14:02;19.55;;;6.38;;
24030;SDS011;12240;51.142;22.486;2022-12-29T03:17:07;23.75;;;6.47;;
24030;SDS011;12240;51.142;22.486;2022-12-29T03:19:47;25.95;;;7.03;;
24030;SDS011;12240;51.142;22.486;2022-12-29T03:22:19;29.80;;;8.18;;
24030;SDS011;12240;51.142;22.486;2022-12-29T03:25:15;26.38;;;7.57;;
24030;SDS011;12240;51.142;22.486;2022-12-29T03:28:03;25.40;;;6.75;;
24030;SDS011;12240;51.142;22.486;2022-12-29T03:30:43;20.10;;;5.85;;
24030;SDS011;12240;51.142;22.486;2022-12-29T03:33:16;24.38;;;6.70;;
24030;SDS011;12240;51.142;22.486;2022-12-29T03:35:51;27.65;;;8.05;;
24030;SDS011;12240;51.142;22.486;2022-12-29T03:41:19;30.25;;;7.88;;
24030;SDS011;12240;51.142;22.486;2022-12-29T03:43:53;23.40;;;7.50;;
24030;SDS011;12240;51.142;22.486;2022-12-29T03:46:22;29.55;;;8.70;;
24030;SDS011;12240;51.142;22.486;2022-12-29T03:48:51;23.42;;;7.50;;
24030;SDS011;12240;51.142;22.486;2022-12-29T03:51:19;28.95;;;8.35;;
24030;SDS011;12240;51.142;22.486;2022-12-29T03:53:48;17.90;;;6.47;;
24030;SDS011;12240;51.142;22.486;2022-12-29T03:56:16;26.10;;;8.18;;
24030;SDS011;12240;51.142;22.486;2022-12-29T03:58:47;23.98;;;7.70;;
24030;SDS011;12240;51.142;22.486;2022-12-29T04:01:24;25.30;;;7.32;;
24030;SDS011;12240;51.142;22.486;2022-12-29T04:03:52;23.55;;;7.45;;
24030;SDS011;12240;51.142;22.486;2022-12-29T04:06:21;29.27;;;8.18;;
24030;SDS011;12240;51.142;22.486;2022-12-29T04:08:59;22.17;;;6.90;;
24030;SDS011;12240;51.142;22.486;2022-12-29T04:11:32;24.80;;;7.25;;
24030;SDS011;12240;51.142;22.486;2022-12-29T04:14:03;22.83;;;7.25;;
24030;SDS011;12240;51.142;22.486;2022-12-29T04:16:33;19.58;;;6.20;;
24030;SDS011;12240;51.142;22.486;2022-12-29T04:24:05;20.65;;;6.18;;
24030;SDS011;12240;51.142;22.486;2022-12-29T04:26:39;22.63;;;6.32;;
24030;SDS011;12240;51.142;22.486;2022-12-29T04:29:28;22.60;;;7.20;;
24030;SDS011;12240;51.142;22.486;2022-12-29T04:32:16;30.48;;;8.45;;
24030;SDS011;12240;51.142;22.486;2022-12-29T04:37:17;23.45;;;6.70;;
24030;SDS011;12240;51.142;22.486;2022-12-29T04:39:45;20.85;;;6.22;;
24030;SDS011;12240;51.142;22.486;2022-12-29T04:42:14;31.00;;;7.90;;
24030;SDS011;12240;51.142;22.486;2022-12-29T04:44:43;23.15;;;6.20;;
24030;SDS011;12240;51.142;22.486;2022-12-29T04:47:31;28.38;;;7.93;;
24030;SDS011;12240;51.142;22.486;2022-12-29T04:50:26;29.30;;;7.60;;
24030;SDS011;12240;51.142;22.486;2022-12-29T04:53:12;32.45;;;8.15;;
24030;SDS011;12240;51.142;22.486;2022-12-29T04:55:42;31.67;;;8.38;;
24030;SDS011;12240;51.142;22.486;2022-12-29T04:58:11;28.02;;;8.00;;
24030;SDS011;12240;51.142;22.486;2022-12-29T05:00:49;20.33;;;5.75;;
24030;SDS011;12240;51.142;22.486;2022-12-29T05:03:21;28.92;;;7.70;;
24030;SDS011;12240;51.142;22.486;2022-12-29T05:05:52;24.63;;;7.18;;
24030;SDS011;12240;51.142;22.486;2022-12-29T05:08:22;27.60;;;6.97;;
24030;SDS011;12240;51.142;22.486;2022-12-29T05:10:57;21.08;;;6.68;;
24030;SDS011;12240;51.142;22.486;2022-12-29T05:13:26;26.92;;;6.85;;
24030;SDS011;12240;51.142;22.486;2022-12-29T05:15:54;21.95;;;6.15;;
24030;SDS011;12240;51.142;22.486;2022-12-29T05:18:23;33.70;;;8.77;;
24030;SDS011;12240;51.142;22.486;2022-12-29T05:20:51;26.90;;;7.63;;
24030;SDS011;12240;51.142;22.486;2022-12-29T05:23:22;32.47;;;8.25;;
24030;SDS011;12240;51.142;22.486;2022-12-29T05:25:56;15.80;;;5.55;;
24030;SDS011;12240;51.142;22.486;2022-12-29T05:28:46;21.52;;;6.85;;
24030;SDS011;12240;51.142;22.486;2022-12-29T05:31:18;25.65;;;8.02;;
24030;SDS011;12240;51.142;22.486;2022-12-29T05:33:48;20.65;;;6.53;;
24030;SDS011;12240;51.142;22.486;2022-12-29T05:36:17;23.38;;;6.82;;
24030;SDS011;12240;51.142;22.486;2022-12-29T05:38:49;23.20;;;6.93;;
24030;SDS011;12240;51.142;22.486;2022-12-29T05:41:18;23.98;;;6.95;;
24030;SDS011;12240;51.142;22.486;2022-12-29T05:44:05;19.17;;;6.22;;
24030;SDS011;12240;51.142;22.486;2022-12-29T05:46:49;21.38;;;6.65;;
24030;SDS011;12240;51.142;22.486;2022-12-29T05:49:32;29.35;;;7.18;;
24030;SDS011;12240;51.142;22.486;2022-12-29T05:52:33;27.05;;;7.38;;
24030;SDS011;12240;51.142;22.486;2022-12-29T05:55:01;22.42;;;6.90;;
24030;SDS011;12240;51.142;22.486;2022-12-29T05:57:31;26.10;;;7.22;;
24030;SDS011;12240;51.142;22.486;2022-12-29T06:00:07;23.50;;;6.90;;
24030;SDS011;12240;51.142;22.486;2022-12-29T06:02:45;25.90;;;6.85;;
24030;SDS011;12240;51.142;22.486;2022-12-29T06:05:15;28.20;;;7.43;;
24030;SDS011;12240;51.142;22.486;2022-12-29T06:07:43;24.45;;;7.25;;
24030;SDS011;12240;51.142;22.486;2022-12-29T06:10:15;29.05;;;7.97;;
24030;SDS011;12240;51.142;22.486;2022-12-29T06:12:58;25.17;;;6.80;;
24030;SDS011;12240;51.142;22.486;2022-12-29T06:15:26;30.52;;;8.30;;
24030;SDS011;12240;51.142;22.486;2022-12-29T06:17:54;25.25;;;6.57;;
24030;SDS011;12240;51.142;22.486;2022-12-29T06:20:23;36.63;;;9.30;;
24030;SDS011;12240;51.142;22.486;2022-12-29T06:22:52;29.90;;;7.70;;
24030;SDS011;12240;51.142;22.486;2022-12-29T06:25:20;31.95;;;7.90;;
24030;SDS011;12240;51.142;22.486;2022-12-29T06:27:48;23.02;;;6.80;;
24030;SDS011;12240;51.142;22.486;2022-12-29T06:30:16;30.55;;;8.60;;
24030;SDS011;12240;51.142;22.486;2022-12-29T06:32:45;23.10;;;7.35;;
24030;SDS011;12240;51.142;22.486;2022-12-29T06:35:13;35.80;;;9.70;;
24030;SDS011;12240;51.142;22.486;2022-12-29T06:37:46;28.30;;;8.00;;
24030;SDS011;12240;51.142;22.486;2022-12-29T06:40:14;27.85;;;7.65;;
24030;SDS011;12240;51.142;22.486;2022-12-29T06:43:02;24.98;;;6.60;;
24030;SDS011;12240;51.142;22.486;2022-12-29T06:45:42;22.15;;;6.57;;
24030;SDS011;12240;51.142;22.486;2022-12-29T06:48:10;19.30;;;5.82;;
24030;SDS011;12240;51.142;22.486;2022-12-29T06:50:38;20.42;;;6.20;;
24030;SDS011;12240;51.142;22.486;2022-12-29T06:53:07;18.25;;;5.47;;
24030;SDS011;12240;51.142;22.486;2022-12-29T06:55:36;16.33;;;4.97;;
24030;SDS011;12240;51.142;22.486;2022-12-29T06:58:04;18.13;;;5.80;;
24030;SDS011;12240;51.142;22.486;2022-12-29T07:00:32;19.27;;;5.88;;
24030;SDS011;12240;51.142;22.486;2022-12-29T07:03:00;15.00;;;4.93;;
24030;SDS011;12240;51.142;22.486;2022-12-29T07:05:29;17.73;;;5.65;;
24030;SDS011;12240;51.142;22.486;2022-12-29T07:07:59;18.20;;;5.47;;
24030;SDS011;12240;51.142;22.486;2022-12-29T07:10:27;26.75;;;7.55;;
24030;SDS011;12240;51.142;22.486;2022-12-29T07:12:55;18.38;;;5.65;;
24030;SDS011;12240;51.142;22.486;2022-12-29T07:15:24;23.75;;;6.68;;
24030;SDS011;12240;51.142;22.486;2022-12-29T07:17:52;16.40;;;5.15;;
24030;SDS011;12240;51.142;22.486;2022-12-29T07:20:20;21.98;;;6.28;;
24030;SDS011;12240;51.142;22.486;2022-12-29T07:22:53;21.10;;;5.82;;
24030;SDS011;12240;51.142;22.486;2022-12-29T07:25:21;28.13;;;6.72;;
24030;SDS011;12240;51.142;22.486;2022-12-29T07:27:50;23.33;;;6.63;;
24030;SDS011;12240;51.142;22.486;2022-12-29T07:30:18;26.15;;;6.85;;
24030;SDS011;12240;51.142;22.486;2022-12-29T07:32:47;20.23;;;5.40;;
24030;SDS011;12240;51.142;22.486;2022-12-29T07:35:16;24.35;;;6.82;;
24030;SDS011;12240;51.142;22.486;2022-12-29T07:37:44;24.35;;;6.22;;
24030;SDS011;12240;51.142;22.486;2022-12-29T07:40:12;23.65;;;6.20;;
24030;SDS011;12240;51.142;22.486;2022-12-29T07:42:41;19.17;;;5.32;;
24030;SDS011;12240;51.142;22.486;2022-12-29T07:45:12;21.60;;;6.00;;
24030;SDS011;12240;51.142;22.486;2022-12-29T07:47:59;17.50;;;5.35;;
24030;SDS011;12240;51.142;22.486;2022-12-29T07:50:27;30.13;;;7.72;;
24030;SDS011;12240;51.142;22.486;2022-12-29T07:52:56;20.45;;;6.72;;
24030;SDS011;12240;51.142;22.486;2022-12-29T07:55:25;24.55;;;6.70;;
24030;SDS011;12240;51.142;22.486;2022-12-29T07:57:53;23.08;;;5.90;;
24030;SDS011;12240;51.142;22.486;2022-12-29T08:00:23;28.17;;;7.35;;
24030;SDS011;12240;51.142;22.486;2022-12-29T08:02:52;20.08;;;6.18;;
24030;SDS011;12240;51.142;22.486;2022-12-29T08:05:20;25.33;;;7.00;;
24030;SDS011;12240;51.142;22.486;2022-12-29T08:07:50;20.55;;;6.22;;
24030;SDS011;12240;51.142;22.486;2022-12-29T08:10:18;20.42;;;6.07;;
24030;SDS011;12240;51.142;22.486;2022-12-29T08:12:46;18.10;;;5.72;;
24030;SDS011;12240;51.142;22.486;2022-12-29T08:15:15;17.83;;;5.28;;
24030;SDS011;12240;51.142;22.486;2022-12-29T08:17:43;16.30;;;4.80;;
24030;SDS011;12240;51.142;22.486;2022-12-29T08:20:11;18.23;;;5.78;;
24030;SDS011;12240;51.142;22.486;2022-12-29T08:22:39;18.08;;;5.13;;
24030;SDS011;12240;51.142;22.486;2022-12-29T08:25:08;18.60;;;4.88;;
24030;SDS011;12240;51.142;22.486;2022-12-29T08:27:37;21.33;;;5.00;;
24030;SDS011;12240;51.142;22.486;2022-12-29T08:30:05;17.52;;;4.97;;
24030;SDS011;12240;51.142;22.486;2022-12-29T08:32:35;18.70;;;5.72;;
24030;SDS011;12240;51.142;22.486;2022-12-29T08:35:04;19.55;;;5.78;;
24030;SDS011;12240;51.142;22.486;2022-12-29T08:37:32;24.27;;;6.80;;
24030;SDS011;12240;51.142;22.486;2022-12-29T08:40:01;26.70;;;6.55;;
24030;SDS011;12240;51.142;22.486;2022-12-29T08:42:31;25.80;;;6.93;;
24030;SDS011;12240;51.142;22.486;2022-12-29T08:45:00;20.42;;;6.07;;
24030;SDS011;12240;51.142;22.486;2022-12-29T08:47:28;20.38;;;5.82;;
24030;SDS011;12240;51.142;22.486;2022-12-29T08:49:56;17.10;;;5.40;;
24030;SDS011;12240;51.142;22.486;2022-12-29T08:52:24;25.30;;;7.35;;
24030;SDS011;12240;51.142;22.486;2022-12-29T08:54:53;20.45;;;6.28;;
24030;SDS011;12240;51.142;22.486;2022-12-29T08:57:21;26.55;;;7.88;;
24030;SDS011;12240;51.142;22.486;2022-12-29T09:00:06;19.42;;;6.32;;
24030;SDS011;12240;51.142;22.486;2022-12-29T09:02:36;16.85;;;5.32;;
24030;SDS011;12240;51.142;22.486;2022-12-29T09:05:04;20.92;;;6.25;;
24030;SDS011;12240;51.142;22.486;2022-12-29T09:07:33;24.85;;;6.85;;
24030;SDS011;12240;51.142;22.486;2022-12-29T09:10:01;21.13;;;6.25;;
24030;SDS011;12240;51.142;22.486;2022-12-29T09:12:31;19.52;;;5.57;;
24030;SDS011;12240;51.142;22.486;2022-12-29T09:15:03;16.67;;;5.50;;
24030;SDS011;12240;51.142;22.486;2022-12-29T09:17:33;19.73;;;6.28;;
24030;SDS011;12240;51.142;22.486;2022-12-29T09:20:14;22.95;;;5.93;;
24030;SDS011;12240;51.142;22.486;2022-12-29T09:22:45;22.80;;;6.18;;
24030;SDS011;12240;51.142;22.486;2022-12-29T09:25:14;26.67;;;6.75;;
24030;SDS011;12240;51.142;22.486;2022-12-29T09:27:43;22.20;;;5.38;;
24030;SDS011;12240;51.142;22.486;2022-12-29T09:30:12;26.13;;;6.25;;
24030;SDS011;12240;51.142;22.486;2022-12-29T09:32:41;23.23;;;5.60;;
24030;SDS011;12240;51.142;22.486;2022-12-29T09:35:13;32.03;;;6.88;;
24030;SDS011;12240;51.142;22.486;2022-12-29T09:37:43;28.10;;;6.22;;
24030;SDS011;12240;51.142;22.486;2022-12-29T09:40:20;38.75;;;8.70;;
24030;SDS011;12240;51.142;22.486;2022-12-29T09:46:09;20.80;;;5.97;;
24030;SDS011;12240;51.142;22.486;2022-12-29T09:48:51;26.48;;;6.43;;
24030;SDS011;12240;51.142;22.486;2022-12-29T09:51:43;26.52;;;7.22;;
24030;SDS011;12240;51.142;22.486;2022-12-29T09:57:00;18.25;;;5.65;;
24030;SDS011;12240;51.142;22.486;2022-12-29T09:59:38;23.42;;;6.72;;
24030;SDS011;12240;51.142;22.486;2022-12-29T10:04:59;20.30;;;5.75;;
24030;SDS011;12240;51.142;22.486;2022-12-29T10:12:59;18.35;;;5.10;;
24030;SDS011;12240;51.142;22.486;2022-12-29T10:24:50;20.38;;;5.85;;
24030;SDS011;12240;51.142;22.486;2022-12-29T10:27:22;26.67;;;7.22;;
24030;SDS011;12240;51.142;22.486;2022-12-29T10:29:53;25.05;;;6.45;;
24030;SDS011;12240;51.142;22.486;2022-12-29T10:35:30;25.40;;;6.93;;
24030;SDS011;12240;51.142;22.486;2022-12-29T10:41:13;20.70;;;6.10;;
24030;SDS011;12240;51.142;22.486;2022-12-29T10:43:53;20.00;;;6.07;;
24030;SDS011;12240;51.142;22.486;2022-12-29T10:46:28;23.75;;;7.38;;
24030;SDS011;12240;51.142;22.486;2022-12-29T10:49:02;18.23;;;5.95;;
24030;SDS011;12240;51.142;22.486;2022-12-29T10:51:41;17.23;;;5.68;;
24030;SDS011;12240;51.142;22.486;2022-12-29T10:54:19;18.27;;;5.93;;
24030;SDS011;12240;51.142;22.486;2022-12-29T10:59:45;14.38;;;5.47;;
24030;SDS011;12240;51.142;22.486;2022-12-29T11:02:28;16.35;;;5.55;;
24030;SDS011;12240;51.142;22.486;2022-12-29T11:08:16;22.65;;;7.30;;
24030;SDS011;12240;51.142;22.486;2022-12-29T11:11:04;14.40;;;5.25;;
24030;SDS011;12240;51.142;22.486;2022-12-29T11:13:51;17.98;;;6.28;;
24030;SDS011;12240;51.142;22.486;2022-12-29T11:16:40;15.40;;;6.13;;
24030;SDS011;12240;51.142;22.486;2022-12-29T11:19:21;17.55;;;5.25;;
24030;SDS011;12240;51.142;22.486;2022-12-29T11:21:54;14.55;;;5.45;;
24030;SDS011;12240;51.142;22.486;2022-12-29T11:24:25;23.55;;;8.07;;
24030;SDS011;12240;51.142;22.486;2022-12-29T11:27:08;18.58;;;6.85;;
24030;SDS011;12240;51.142;22.486;2022-12-29T11:29:52;16.42;;;6.25;;
24030;SDS011;12240;51.142;22.486;2022-12-29T11:32:25;27.20;;;8.27;;
24030;SDS011;12240;51.142;22.486;2022-12-29T11:34:58;21.67;;;7.15;;
24030;SDS011;12240;51.142;22.486;2022-12-29T11:37:29;18.00;;;6.40;;
24030;SDS011;12240;51.142;22.486;2022-12-29T11:40:15;17.65;;;6.15;;
24030;SDS011;12240;51.142;22.486;2022-12-29T11:43:02;18.35;;;6.40;;
24030;SDS011;12240;51.142;22.486;2022-12-29T11:45:35;22.85;;;6.90;;
24030;SDS011;12240;51.142;22.486;2022-12-29T11:48:06;15.40;;;5.05;;
24030;SDS011;12240;51.142;22.486;2022-12-29T11:50:50;20.05;;;6.32;;
24030;SDS011;12240;51.142;22.486;2022-12-29T11:53:27;26.92;;;6.68;;
24030;SDS011;12240;51.142;22.486;2022-12-29T11:56:17;26.50;;;7.53;;
24030;SDS011;12240;51.142;22.486;2022-12-29T12:05:23;18.83;;;6.15;;
24030;SDS011;12240;51.142;22.486;2022-12-29T12:14:05;17.45;;;7.32;;
24030;SDS011;12240;51.142;22.486;2022-12-29T12:20:16;15.43;;;6.72;;
24030;SDS011;12240;51.142;22.486;2022-12-29T12:26:02;19.02;;;6.70;;
24030;SDS011;12240;51.142;22.486;2022-12-29T12:29:10;15.85;;;6.22;;
24030;SDS011;12240;51.142;22.486;2022-12-29T12:31:54;14.30;;;5.82;;
24030;SDS011;12240;51.142;22.486;2022-12-29T12:34:40;11.35;;;5.22;;
24030;SDS011;12240;51.142;22.486;2022-12-29T12:37:15;15.38;;;6.30;;
24030;SDS011;12240;51.142;22.486;2022-12-29T12:43:12;11.27;;;5.57;;
24030;SDS011;12240;51.142;22.486;2022-12-29T12:46:23;15.23;;;6.45;;
24030;SDS011;12240;51.142;22.486;2022-12-29T12:55:35;14.50;;;6.85;;
24030;SDS011;12240;51.142;22.486;2022-12-29T13:01:38;21.02;;;7.47;;
24030;SDS011;12240;51.142;22.486;2022-12-29T13:10:16;16.33;;;5.95;;
24030;SDS011;12240;51.142;22.486;2022-12-29T13:19:17;14.10;;;6.22;;
24030;SDS011;12240;51.142;22.486;2022-12-29T13:22:06;16.08;;;6.25;;
24030;SDS011;12240;51.142;22.486;2022-12-29T13:25:14;12.68;;;5.88;;
24030;SDS011;12240;51.142;22.486;2022-12-29T13:36:54;15.32;;;6.97;;
24030;SDS011;12240;51.142;22.486;2022-12-29T13:39:31;14.60;;;5.88;;
24030;SDS011;12240;51.142;22.486;2022-12-29T13:42:21;17.40;;;7.65;;
24030;SDS011;12240;51.142;22.486;2022-12-29T13:47:37;15.02;;;6.85;;
24030;SDS011;12240;51.142;22.486;2022-12-29T13:50:19;12.73;;;6.30;;
24030;SDS011;12240;51.142;22.486;2022-12-29T13:56:05;14.23;;;6.10;;
24030;SDS011;12240;51.142;22.486;2022-12-29T14:01:58;14.90;;;6.95;;
24030;SDS011;12240;51.142;22.486;2022-12-29T14:04:41;14.98;;;6.15;;
24030;SDS011;12240;51.142;22.486;2022-12-29T14:07:26;16.67;;;7.78;;
24030;SDS011;12240;51.142;22.486;2022-12-29T14:09:55;14.48;;;6.93;;
24030;SDS011;12240;51.142;22.486;2022-12-29T14:17:43;22.90;;;7.75;;
24030;SDS011;12240;51.142;22.486;2022-12-29T14:20:26;18.27;;;8.15;;
24030;SDS011;12240;51.142;22.486;2022-12-29T14:28:32;16.30;;;8.18;;
24030;SDS011;12240;51.142;22.486;2022-12-29T14:36:41;18.98;;;8.15;;
24030;SDS011;12240;51.142;22.486;2022-12-29T14:47:38;18.98;;;7.80;;
24030;SDS011;12240;51.142;22.486;2022-12-29T14:53:01;23.52;;;9.15;;
24030;SDS011;12240;51.142;22.486;2022-12-29T14:58:32;26.23;;;9.13;;
24030;SDS011;12240;51.142;22.486;2022-12-29T15:04:03;19.45;;;6.95;;
24030;SDS011;12240;51.142;22.486;2022-12-29T15:06:43;18.02;;;7.35;;
24030;SDS011;12240;51.142;22.486;2022-12-29T15:09:35;19.50;;;8.32;;
24030;SDS011;12240;51.142;22.486;2022-12-29T15:17:51;25.95;;;9.45;;
24030;SDS011;12240;51.142;22.486;2022-12-29T15:20:25;20.13;;;8.88;;
24030;SDS011;12240;51.142;22.486;2022-12-29T15:23:09;18.92;;;7.97;;
24030;SDS011;12240;51.142;22.486;2022-12-29T15:25:50;24.02;;;10.60;;
24030;SDS011;12240;51.142;22.486;2022-12-29T15:28:30;35.53;;;11.90;;
24030;SDS011;12240;51.142;22.486;2022-12-29T15:31:19;43.70;;;13.27;;
24030;SDS011;12240;51.142;22.486;2022-12-29T15:34:09;30.58;;;10.82;;
24030;SDS011;12240;51.142;22.486;2022-12-29T15:36:40;23.45;;;8.95;;
24030;SDS011;12240;51.142;22.486;2022-12-29T15:39:19;17.95;;;8.15;;
24030;SDS011;12240;51.142;22.486;2022-12-29T15:45:25;14.88;;;7.15;;
24030;SDS011;12240;51.142;22.486;2022-12-29T15:48:01;18.23;;;7.03;;
24030;SDS011;12240;51.142;22.486;2022-12-29T15:50:31;11.23;;;5.53;;
24030;SDS011;12240;51.142;22.486;2022-12-29T15:53:08;18.50;;;6.72;;
24030;SDS011;12240;51.142;22.486;2022-12-29T15:55:39;18.58;;;7.43;;
24030;SDS011;12240;51.142;22.486;2022-12-29T15:58:20;18.30;;;7.18;;
24030;SDS011;12240;51.142;22.486;2022-12-29T16:00:56;12.55;;;5.82;;
24030;SDS011;12240;51.142;22.486;2022-12-29T16:03:27;20.10;;;7.85;;
24030;SDS011;12240;51.142;22.486;2022-12-29T16:06:10;17.65;;;7.22;;
24030;SDS011;12240;51.142;22.486;2022-12-29T16:11:40;15.15;;;6.68;;
24030;SDS011;12240;51.142;22.486;2022-12-29T16:14:14;16.02;;;7.63;;
24030;SDS011;12240;51.142;22.486;2022-12-29T16:16:53;13.55;;;6.72;;
24030;SDS011;12240;51.142;22.486;2022-12-29T16:19:28;14.35;;;7.40;;
24030;SDS011;12240;51.142;22.486;2022-12-29T16:22:27;15.23;;;6.97;;
24030;SDS011;12240;51.142;22.486;2022-12-29T16:25:38;12.48;;;6.60;;
24030;SDS011;12240;51.142;22.486;2022-12-29T16:28:02;20.73;;;8.95;;
24030;SDS011;12240;51.142;22.486;2022-12-29T16:30:59;19.63;;;6.95;;
24030;SDS011;12240;51.142;22.486;2022-12-29T16:33:50;22.77;;;9.55;;
24030;SDS011;12240;51.142;22.486;2022-12-29T16:36:21;21.27;;;9.32;;
24030;SDS011;12240;51.142;22.486;2022-12-29T16:39:19;17.55;;;7.45;;
24030;SDS011;12240;51.142;22.486;2022-12-29T16:41:56;13.77;;;7.07;;
24030;SDS011;12240;51.142;22.486;2022-12-29T16:44:28;20.85;;;9.90;;
24030;SDS011;12240;51.142;22.486;2022-12-29T16:46:59;20.55;;;8.52;;
24030;SDS011;12240;51.142;22.486;2022-12-29T16:49:39;20.98;;;8.30;;
24030;SDS011;12240;51.142;22.486;2022-12-29T16:52:13;20.13;;;8.60;;
24030;SDS011;12240;51.142;22.486;2022-12-29T16:54:52;21.90;;;9.07;;
24030;SDS011;12240;51.142;22.486;2022-12-29T16:57:29;32.13;;;9.88;;
24030;SDS011;12240;51.142;22.486;2022-12-29T17:00:05;24.02;;;10.00;;
24030;SDS011;12240;51.142;22.486;2022-12-29T17:02:36;21.55;;;9.40;;
24030;SDS011;12240;51.142;22.486;2022-12-29T17:05:13;16.88;;;7.03;;
24030;SDS011;12240;51.142;22.486;2022-12-29T17:07:43;18.13;;;8.63;;
24030;SDS011;12240;51.142;22.486;2022-12-29T17:10:13;21.90;;;8.82;;
24030;SDS011;12240;51.142;22.486;2022-12-29T17:12:43;16.98;;;8.25;;
24030;SDS011;12240;51.142;22.486;2022-12-29T17:15:32;21.85;;;9.30;;
24030;SDS011;12240;51.142;22.486;2022-12-29T17:18:02;18.60;;;7.82;;
24030;SDS011;12240;51.142;22.486;2022-12-29T17:20:38;18.02;;;7.75;;
24030;SDS011;12240;51.142;22.486;2022-12-29T17:23:12;23.65;;;9.55;;
24030;SDS011;12240;51.142;22.486;2022-12-29T17:25:52;21.25;;;8.68;;
24030;SDS011;12240;51.142;22.486;2022-12-29T17:28:25;22.52;;;10.15;;
24030;SDS011;12240;51.142;22.486;2022-12-29T17:31:03;22.25;;;9.30;;
24030;SDS011;12240;51.142;22.486;2022-12-29T17:33:34;20.55;;;9.73;;
24030;SDS011;12240;51.142;22.486;2022-12-29T17:36:06;20.85;;;8.70;;
24030;SDS011;12240;51.142;22.486;2022-12-29T17:38:35;15.60;;;7.90;;
24030;SDS011;12240;51.142;22.486;2022-12-29T17:41:05;17.98;;;7.55;;
24030;SDS011;12240;51.142;22.486;2022-12-29T17:43:43;21.95;;;9.60;;
24030;SDS011;12240;51.142;22.486;2022-12-29T17:46:11;22.90;;;9.43;;
24030;SDS011;12240;51.142;22.486;2022-12-29T17:48:40;23.35;;;9.43;;
24030;SDS011;12240;51.142;22.486;2022-12-29T17:51:17;24.85;;;9.88;;
24030;SDS011;12240;51.142;22.486;2022-12-29T17:53:47;19.52;;;8.32;;
24030;SDS011;12240;51.142;22.486;2022-12-29T17:56:17;18.15;;;9.05;;
24030;SDS011;12240;51.142;22.486;2022-12-29T17:58:45;19.38;;;9.52;;
24030;SDS011;12240;51.142;22.486;2022-12-29T18:01:15;21.70;;;10.10;;
24030;SDS011;12240;51.142;22.486;2022-12-29T18:03:48;18.35;;;8.57;;
24030;SDS011;12240;51.142;22.486;2022-12-29T18:06:16;21.75;;;9.90;;
24030;SDS011;12240;51.142;22.486;2022-12-29T18:08:44;22.35;;;10.27;;
24030;SDS011;12240;51.142;22.486;2022-12-29T18:11:23;22.20;;;9.38;;
24030;SDS011;12240;51.142;22.486;2022-12-29T18:13:53;21.00;;;8.77;;
24030;SDS011;12240;51.142;22.486;2022-12-29T18:16:21;21.27;;;9.45;;
24030;SDS011;12240;51.142;22.486;2022-12-29T18:18:50;25.80;;;9.75;;
24030;SDS011;12240;51.142;22.486;2022-12-29T18:21:20;23.23;;;9.82;;